createdAt,value
2023-04-14T00:00:24.694Z,100167.03
2023-04-14T00:02:52.416Z,100179.59
2023-04-14T00:05:20.617Z,100173.03
2023-04-14T00:07:48.330Z,100170.84
2023-04-14T00:10:16.256Z,100170.22
2023-04-14T00:12:43.928Z,100166.44
2023-04-14T00:15:12.305Z,100169.81
2023-04-14T00:17:41.344Z,100173.22
2023-04-14T00:20:09.994Z,100167.56
2023-04-14T00:22:37.753Z,100162.72
2023-04-14T00:25:06.529Z,100168.56
2023-04-14T00:27:34.186Z,100173.03
2023-04-14T00:30:01.931Z,100177.84
2023-04-14T00:32:29.705Z,100179.47
2023-04-14T00:35:00.211Z,100182.16
2023-04-14T00:37:27.967Z,100182.00
2023-04-14T00:39:55.709Z,100190.63
2023-04-14T00:42:23.690Z,100193.03
2023-04-14T00:44:51.474Z,100189.56
2023-04-14T00:47:19.343Z,100195.03
2023-04-14T00:49:47.059Z,100190.94
2023-04-14T00:52:16.189Z,100201.34
2023-04-14T00:54:44.002Z,100200.84
2023-04-14T00:57:11.732Z,100202.72
2023-04-14T00:59:39.436Z,100197.38
2023-04-14T01:02:07.215Z,100208.72
2023-04-14T01:04:49.586Z,100211.00
2023-04-14T01:07:23.606Z,100214.47
2023-04-14T01:09:51.446Z,100210.50
2023-04-14T01:12:24.790Z,100216.31
2023-04-14T01:14:58.312Z,100216.47
2023-04-14T01:17:33.934Z,100220.84
2023-04-14T01:20:10.211Z,100224.31
2023-04-14T01:22:50.952Z,100228.50
2023-04-14T01:26:09.367Z,100237.59
2023-04-14T01:28:50.330Z,100244.03
2023-04-14T01:31:23.608Z,100236.03
2023-04-14T01:33:56.282Z,100242.38
2023-04-14T01:36:28.867Z,100248.94
2023-04-14T01:38:58.150Z,100250.34
2023-04-14T01:41:28.614Z,100244.19
2023-04-14T01:43:57.274Z,100240.91
2023-04-14T01:46:26.380Z,100242.59
2023-04-14T01:48:54.576Z,100247.31
2023-04-14T01:51:23.318Z,100244.41
2023-04-14T01:53:51.949Z,100246.53
2023-04-14T01:56:20.907Z,100248.09
2023-04-14T01:58:49.439Z,100250.50
2023-04-14T02:01:18.098Z,100253.47
2023-04-14T02:03:47.857Z,100251.00
2023-04-14T02:06:16.006Z,100253.91
2023-04-14T02:08:44.305Z,100249.97
2023-04-14T02:11:14.445Z,100258.19
2023-04-14T02:13:42.860Z,100254.34
2023-04-14T02:16:11.721Z,100264.19
2023-04-14T02:18:41.491Z,100260.50
2023-04-14T02:21:11.213Z,100267.75
2023-04-14T02:23:38.963Z,100254.72
2023-04-14T02:26:13.443Z,100258.72
2023-04-14T02:28:47.526Z,100263.22
2023-04-14T02:31:20.232Z,100261.66
2023-04-14T02:33:49.564Z,100268.59
2023-04-14T02:36:21.588Z,100268.75
2023-04-14T02:38:52.708Z,100263.03
2023-04-14T02:41:24.775Z,100276.16
2023-04-14T02:44:02.558Z,100266.66
2023-04-14T02:46:34.709Z,100270.06
2023-04-14T02:49:04.313Z,100262.03
2023-04-14T02:51:34.056Z,100261.81
2023-04-14T02:54:01.785Z,100262.38
2023-04-14T02:56:29.594Z,100258.50
2023-04-14T02:58:57.927Z,100263.03
2023-04-14T03:01:26.435Z,100256.09
2023-04-14T03:03:55.281Z,100254.69
2023-04-14T03:06:23.934Z,100258.22
2023-04-14T03:08:53.379Z,100261.06
2023-04-14T03:11:22.632Z,100258.75
2023-04-14T03:13:51.674Z,100266.09
2023-04-14T03:16:20.342Z,100258.03
2023-04-14T03:18:48.683Z,100254.84
2023-04-14T03:21:18.590Z,100257.13
2023-04-14T03:23:48.497Z,100257.81
2023-04-14T03:26:20.162Z,100258.09
2023-04-14T03:28:48.492Z,100259.88
2023-04-14T03:31:18.996Z,100255.25
2023-04-14T03:33:48.283Z,100252.13
2023-04-14T03:36:17.394Z,100258.84
2023-04-14T03:38:45.486Z,100258.84
2023-04-14T03:41:13.206Z,100260.59
2023-04-14T03:43:42.521Z,100261.34
2023-04-14T03:46:11.111Z,100256.13
2023-04-14T03:48:42.286Z,100268.53
2023-04-14T03:51:10.800Z,100272.06
2023-04-14T03:53:40.823Z,100268.00
2023-04-14T03:56:09.793Z,100263.16
2023-04-14T03:58:37.745Z,100264.22
2023-04-14T04:01:07.955Z,100261.72
2023-04-14T04:03:37.028Z,100265.91
2023-04-14T04:06:05.290Z,100275.94
2023-04-14T04:08:34.374Z,100267.19
2023-04-14T04:11:02.816Z,100271.72
2023-04-14T04:13:30.813Z,100268.25
2023-04-14T04:15:59.799Z,100279.31
2023-04-14T04:18:29.103Z,100281.53
2023-04-14T04:20:58.923Z,100275.53
2023-04-14T04:23:27.686Z,100290.06
2023-04-14T04:25:56.865Z,100293.59
2023-04-14T04:28:24.640Z,100290.50
2023-04-14T04:30:54.052Z,100294.66
2023-04-14T04:33:22.575Z,100292.91
2023-04-14T04:35:52.718Z,100290.50
2023-04-14T04:38:20.516Z,100289.50
2023-04-14T04:40:48.261Z,100289.63
2023-04-14T04:43:17.934Z,100298.69
2023-04-14T04:45:53.294Z,100295.28
2023-04-14T04:48:21.026Z,100291.28
2023-04-14T04:50:48.790Z,100302.63
2023-04-14T04:53:17.782Z,100302.91
2023-04-14T04:55:45.509Z,100306.44
2023-04-14T04:58:13.241Z,100307.34
2023-04-14T05:00:41.282Z,100316.25
2023-04-14T05:03:09.028Z,100312.06
2023-04-14T05:05:37.467Z,100314.72
2023-04-14T05:08:05.414Z,100314.38
2023-04-14T05:10:37.084Z,100308.34
2023-04-14T05:13:04.837Z,100315.28
2023-04-14T05:15:32.624Z,100311.88
2023-04-14T05:18:01.624Z,100301.91
2023-04-14T05:20:29.477Z,100317.13
2023-04-14T05:22:57.216Z,100308.56
2023-04-14T05:25:25.033Z,100313.56
2023-04-14T05:27:54.153Z,100319.34
2023-04-14T05:30:21.936Z,100324.00
2023-04-14T05:32:49.714Z,100316.91
2023-04-14T05:35:17.590Z,100331.19
2023-04-14T05:37:45.438Z,100331.50
2023-04-14T05:40:13.969Z,100331.63
2023-04-14T05:42:41.913Z,100322.59
2023-04-14T05:45:11.888Z,100317.94
2023-04-14T05:47:40.762Z,100321.69
2023-04-14T05:50:09.500Z,100309.31
2023-04-14T05:52:37.222Z,100310.56
2023-04-14T05:55:05.376Z,100317.84
2023-04-14T05:57:33.103Z,100323.63
2023-04-14T06:00:00.872Z,100318.97
2023-04-14T06:02:30.059Z,100325.94
2023-04-14T06:04:59.770Z,100320.94
2023-04-14T06:07:27.657Z,100335.13
2023-04-14T06:09:55.744Z,100326.53
2023-04-14T06:12:23.477Z,100330.84
2023-04-14T06:14:51.294Z,100338.09
2023-04-14T06:17:19.203Z,100339.81
2023-04-14T06:19:49.160Z,100337.13
2023-04-14T06:22:19.350Z,100340.19
2023-04-14T06:24:47.153Z,100337.75
2023-04-14T06:27:15.111Z,100337.03
2023-04-14T06:29:42.912Z,100330.16
2023-04-14T06:32:10.640Z,100328.31
2023-04-14T06:34:38.469Z,100333.16
2023-04-14T06:37:07.574Z,100321.84
2023-04-14T06:39:35.422Z,100310.72
2023-04-14T06:42:03.177Z,100304.53
2023-04-14T06:44:30.866Z,100305.06
2023-04-14T06:46:59.238Z,100300.38
2023-04-14T06:49:26.918Z,100299.50
2023-04-14T06:51:54.673Z,100290.31
2023-04-14T06:54:23.761Z,100293.81
2023-04-14T06:56:51.487Z,100291.94
2023-04-14T06:59:21.115Z,100290.25
2023-04-14T07:01:48.995Z,100297.50
2023-04-14T07:04:19.359Z,100291.78
2023-04-14T07:06:47.332Z,100288.78
2023-04-14T07:09:15.116Z,100292.16
2023-04-14T07:11:45.586Z,100296.56
2023-04-14T07:14:13.368Z,100301.94
2023-04-14T07:16:41.140Z,100296.91
2023-04-14T07:19:08.876Z,100288.75
2023-04-14T07:21:37.570Z,100295.81
2023-04-14T07:24:05.580Z,100296.38
2023-04-14T07:26:33.326Z,100295.91
2023-04-14T07:29:02.520Z,100304.56
2023-04-14T07:31:31.341Z,100305.91
2023-04-14T07:33:59.288Z,100292.34
2023-04-14T07:36:27.956Z,100302.22
2023-04-14T07:38:55.640Z,100297.22
2023-04-14T07:41:23.412Z,100300.13
2023-04-14T07:43:52.379Z,100305.31
2023-04-14T07:46:21.576Z,100306.59
2023-04-14T07:48:49.350Z,100300.97
2023-04-14T07:51:17.386Z,100304.91
2023-04-14T07:53:45.189Z,100308.78
2023-04-14T07:56:13.155Z,100299.81
2023-04-14T07:58:41.272Z,100296.75
2023-04-14T08:01:09.092Z,100298.44
2023-04-14T08:03:38.457Z,100300.47
2023-04-14T08:06:07.562Z,100294.75
2023-04-14T08:08:35.381Z,100298.03
2023-04-14T08:11:03.071Z,100290.63
2023-04-14T08:13:30.772Z,100291.16
2023-04-14T08:15:58.543Z,100300.16
2023-04-14T08:18:26.496Z,100292.97
2023-04-14T08:20:55.672Z,100287.25
2023-04-14T08:23:23.606Z,100281.50
2023-04-14T08:25:51.524Z,100290.31
2023-04-14T08:28:19.405Z,100290.84
2023-04-14T08:30:47.797Z,100292.47
2023-04-14T08:33:15.843Z,100291.88
2023-04-14T08:35:44.006Z,100270.28
2023-04-14T08:38:13.287Z,100284.19
2023-04-14T08:40:42.131Z,100296.13
2023-04-14T08:43:12.432Z,100295.94
2023-04-14T08:45:43.174Z,100312.31
2023-04-14T08:48:13.245Z,100313.00
2023-04-14T08:50:59.258Z,100295.50
2023-04-14T08:53:28.920Z,100306.06
2023-04-14T08:55:58.404Z,100298.41
2023-04-14T08:58:26.428Z,100294.19
2023-04-14T09:00:54.664Z,100291.56
2023-04-14T09:03:22.872Z,100300.50
2023-04-14T09:05:51.808Z,100297.53
2023-04-14T09:08:20.814Z,100302.38
2023-04-14T09:10:50.074Z,100292.78
2023-04-14T09:13:19.450Z,100286.09
2023-04-14T09:15:47.151Z,100290.75
2023-04-14T09:18:14.910Z,100287.91
2023-04-14T09:20:42.833Z,100294.81
2023-04-14T09:23:11.105Z,100290.03
2023-04-14T09:25:39.356Z,100298.16
2023-04-14T09:28:08.764Z,100303.00
2023-04-14T09:30:36.661Z,100280.69
2023-04-14T09:33:06.637Z,100295.94
2023-04-14T09:35:44.665Z,100304.56
2023-04-14T09:38:12.410Z,100298.88
2023-04-14T09:40:43.294Z,100300.91
2023-04-14T09:43:23.979Z,100300.41
2023-04-14T09:45:51.886Z,100288.16
2023-04-14T09:48:20.170Z,100281.75
2023-04-14T09:50:58.517Z,100279.56
2023-04-14T09:53:28.144Z,100285.59
2023-04-14T09:55:55.920Z,100278.25
2023-04-14T09:58:27.788Z,100292.56
2023-04-14T10:00:57.266Z,100303.31
2023-04-14T10:03:36.024Z,100298.69
2023-04-14T10:06:07.367Z,100298.19
2023-04-14T10:08:37.186Z,100300.53
2023-04-14T10:11:19.064Z,100293.09
2023-04-14T10:13:49.271Z,100286.56
2023-04-14T10:16:17.442Z,100284.34
2023-04-14T10:18:45.344Z,100288.81
2023-04-14T10:21:13.793Z,100287.75
2023-04-14T10:23:42.840Z,100283.28
2023-04-14T10:26:11.933Z,100280.25
2023-04-14T10:28:41.938Z,100276.31
2023-04-14T10:31:16.073Z,100276.91
2023-04-14T10:33:44.007Z,100273.38
2023-04-14T10:36:11.784Z,100268.22
2023-04-14T10:38:43.954Z,100266.97
2023-04-14T10:41:12.403Z,100269.66
2023-04-14T10:43:40.696Z,100265.53
2023-04-14T10:46:09.707Z,100261.59
2023-04-14T10:48:40.168Z,100261.16
2023-04-14T10:51:09.712Z,100252.66
2023-04-14T10:53:39.688Z,100258.28
2023-04-14T10:56:07.522Z,100258.50
2023-04-14T10:58:37.754Z,100251.13
2023-04-14T11:01:26.849Z,100257.59
2023-04-14T11:03:56.319Z,100242.78
2023-04-14T11:06:55.648Z,100240.91
2023-04-14T11:09:25.399Z,100220.94
2023-04-14T11:11:53.146Z,100229.28
2023-04-14T11:14:27.340Z,100242.91
2023-04-14T11:17:03.767Z,100229.75
2023-04-14T11:19:34.326Z,100237.19
2023-04-14T11:22:02.026Z,100227.09
2023-04-14T11:24:30.099Z,100229.50
2023-04-14T11:26:58.443Z,100218.94
2023-04-14T11:29:26.184Z,100219.19
2023-04-14T11:32:04.332Z,100216.53
2023-04-14T11:34:34.372Z,100229.09
2023-04-14T11:37:05.089Z,100223.34
2023-04-14T11:39:33.079Z,100227.97
2023-04-14T11:42:01.285Z,100235.41
2023-04-14T11:44:29.406Z,100221.50
2023-04-14T11:46:57.111Z,100218.84
2023-04-14T11:49:36.222Z,100208.81
2023-04-14T11:52:08.407Z,100210.81
2023-04-14T11:54:37.688Z,100208.50
2023-04-14T11:57:11.072Z,100213.75
2023-04-14T11:59:43.545Z,100202.78
2023-04-14T12:02:17.234Z,100212.88
2023-04-14T12:04:48.612Z,100220.41
2023-04-14T12:07:19.188Z,100207.63
2023-04-14T12:09:48.891Z,100202.16
2023-04-14T12:12:17.906Z,100206.50
2023-04-14T12:14:46.734Z,100211.44
2023-04-14T12:17:15.415Z,100219.41
2023-04-14T12:19:43.323Z,100209.56
2023-04-14T12:22:12.483Z,100212.31
2023-04-14T12:24:41.904Z,100212.75
2023-04-14T12:27:10.179Z,100199.47
2023-04-14T12:29:38.175Z,100195.56
2023-04-14T12:32:11.840Z,100211.75
2023-04-14T12:34:39.974Z,100210.97
2023-04-14T12:37:09.750Z,100197.00
2023-04-14T12:39:52.810Z,100182.16
2023-04-14T12:42:20.808Z,100191.22
2023-04-14T12:44:58.975Z,100186.59
2023-04-14T12:47:30.909Z,100182.81
2023-04-14T12:49:59.522Z,100176.50
2023-04-14T12:52:34.082Z,100184.63
2023-04-14T12:55:04.842Z,100183.47
2023-04-14T12:57:32.743Z,100171.13
2023-04-14T13:00:00.918Z,100168.03
2023-04-14T13:02:29.975Z,100166.81
2023-04-14T13:04:57.970Z,100187.25
2023-04-14T13:07:25.670Z,100168.47
2023-04-14T13:09:53.679Z,100171.44
2023-04-14T13:12:22.785Z,100174.78
2023-04-14T13:14:50.690Z,100166.06
2023-04-14T13:17:18.522Z,100144.03
2023-04-14T13:19:46.361Z,100146.72
2023-04-14T13:22:14.839Z,100155.75
2023-04-14T13:24:42.572Z,100156.72
2023-04-14T13:27:11.573Z,100150.00
2023-04-14T13:29:42.212Z,100160.34
2023-04-14T13:32:11.069Z,100155.28
2023-04-14T13:34:39.309Z,100147.69
2023-04-14T13:37:07.312Z,100149.25
2023-04-14T13:39:35.037Z,100139.47
2023-04-14T13:42:03.142Z,100131.59
2023-04-14T13:44:32.487Z,100137.53
2023-04-14T13:47:02.752Z,100109.97
2023-04-14T13:49:31.353Z,100129.59
2023-04-14T13:51:59.066Z,100130.69
2023-04-14T13:54:27.200Z,100130.25
2023-04-14T13:56:54.985Z,100135.03
2023-04-14T13:59:22.995Z,100128.50
2023-04-14T14:01:51.069Z,100140.19
2023-04-14T14:04:20.428Z,100140.81
2023-04-14T14:06:48.308Z,100135.34
2023-04-14T14:09:16.352Z,100122.84
2023-04-14T14:11:46.156Z,100109.91
2023-04-14T14:14:14.953Z,100109.09
2023-04-14T14:16:42.943Z,100113.16
2023-04-14T14:19:15.024Z,100107.88
2023-04-14T14:21:44.852Z,100113.53
2023-04-14T14:24:14.000Z,100106.81
2023-04-14T14:26:41.820Z,100097.75
2023-04-14T14:29:09.514Z,100115.28
2023-04-14T14:31:37.327Z,100115.00
2023-04-14T14:34:05.176Z,100111.50
2023-04-14T14:36:33.206Z,100096.91
2023-04-14T14:39:02.519Z,100097.97
2023-04-14T14:41:30.317Z,100100.22
2023-04-14T14:43:59.212Z,100093.94
2023-04-14T14:46:27.962Z,100096.09
2023-04-14T14:48:55.947Z,100087.47
2023-04-14T14:51:24.173Z,100081.88
2023-04-14T14:53:54.226Z,100082.78
2023-04-14T14:56:28.464Z,100092.19
2023-04-14T14:58:57.324Z,100085.28
2023-04-14T15:01:25.322Z,100080.53
2023-04-14T15:03:54.804Z,100079.75
2023-04-14T15:06:22.887Z,100086.00
2023-04-14T15:08:50.615Z,100074.69
2023-04-14T15:11:18.385Z,100075.22
2023-04-14T15:13:47.410Z,100091.91
2023-04-14T15:16:15.171Z,100094.16
2023-04-14T15:18:43.049Z,100076.50
2023-04-14T15:21:10.820Z,100083.06
2023-04-14T15:23:41.236Z,100072.56
2023-04-14T15:26:08.918Z,100069.00
2023-04-14T15:28:36.839Z,100069.72
2023-04-14T15:31:06.347Z,100074.06
2023-04-14T15:33:34.183Z,100072.66
2023-04-14T15:36:02.005Z,100079.41
2023-04-14T15:38:29.795Z,100076.88
2023-04-14T15:40:57.960Z,100088.56
2023-04-14T15:43:27.831Z,100087.69
2023-04-14T15:45:55.764Z,100084.03
2023-04-14T15:48:24.948Z,100074.78
2023-04-14T15:50:52.665Z,100070.00
2023-04-14T15:53:20.415Z,100073.94
2023-04-14T15:55:50.146Z,100071.28
2023-04-14T15:58:17.927Z,100084.69
2023-04-14T16:00:45.795Z,100062.66
2023-04-14T16:03:14.754Z,100064.25
2023-04-14T16:05:43.983Z,100069.44
2023-04-14T16:08:11.657Z,100066.97
2023-04-14T16:10:42.736Z,100057.53
2023-04-14T16:13:11.066Z,100062.09
2023-04-14T16:15:38.773Z,100058.25
2023-04-14T16:18:06.539Z,100062.84
2023-04-14T16:20:34.311Z,100055.81
2023-04-14T16:23:03.345Z,100066.88
2023-04-14T16:25:31.274Z,100066.59
2023-04-14T16:27:59.060Z,100073.75
2023-04-14T16:30:26.832Z,100081.91
2023-04-14T16:32:54.575Z,100057.34
2023-04-14T16:35:22.385Z,100071.31
2023-04-14T16:37:50.142Z,100078.59
2023-04-14T16:40:19.491Z,100058.56
2023-04-14T16:42:47.806Z,100063.53
2023-04-14T16:45:15.562Z,100063.16
2023-04-14T16:47:43.284Z,100059.59
2023-04-14T16:50:11.680Z,100066.75
2023-04-14T16:52:39.388Z,100069.16
2023-04-14T16:55:07.800Z,100066.91
2023-04-14T16:57:36.796Z,100065.63
2023-04-14T17:00:05.036Z,100069.97
2023-04-14T17:02:32.892Z,100070.47
2023-04-14T17:05:01.529Z,100070.31
2023-04-14T17:07:29.372Z,100066.66
2023-04-14T17:09:57.681Z,100078.69
2023-04-14T17:12:25.632Z,100075.44
2023-04-14T17:14:54.734Z,100075.00
2023-04-14T17:17:22.533Z,100070.75
2023-04-14T17:19:50.424Z,100081.88
2023-04-14T17:22:18.138Z,100079.53
2023-04-14T17:24:46.143Z,100076.06
2023-04-14T17:27:13.917Z,100076.56
2023-04-14T17:29:42.002Z,100090.94
2023-04-14T17:32:12.280Z,100084.53
2023-04-14T17:34:40.218Z,100081.00
2023-04-14T17:37:08.020Z,100084.31
2023-04-14T17:39:35.893Z,100082.19
2023-04-14T17:42:03.702Z,100084.97
2023-04-14T17:44:33.458Z,100089.13
2023-04-14T17:47:02.983Z,100095.41
2023-04-14T17:49:33.775Z,100104.34
2023-04-14T17:52:01.435Z,100087.84
2023-04-14T17:54:30.181Z,100109.44
2023-04-14T17:56:58.361Z,100098.84
2023-04-14T17:59:26.004Z,100103.06
2023-04-14T18:01:53.800Z,100095.38
2023-04-14T18:04:22.146Z,100101.19
2023-04-14T18:06:51.284Z,100105.50
2023-04-14T18:09:18.965Z,100105.41
2023-04-14T18:11:46.649Z,100119.72
2023-04-14T18:14:14.295Z,100115.63
2023-04-14T18:16:42.250Z,100115.16
2023-04-14T18:19:10.122Z,100121.44
2023-04-14T18:21:38.150Z,100121.22
2023-04-14T18:26:38.415Z,100133.00
2023-04-14T18:29:06.751Z,100132.03
2023-04-14T18:31:35.315Z,100131.56
2023-04-14T18:34:05.011Z,100137.69
2023-04-14T18:36:33.438Z,100145.53
2023-04-14T18:39:01.553Z,100147.34
2023-04-14T18:41:30.759Z,100141.78
2023-04-14T18:43:58.627Z,100143.97
2023-04-14T18:46:27.509Z,100144.22
2023-04-14T18:48:55.399Z,100145.16
2023-04-14T18:51:23.185Z,100149.66
2023-04-14T18:53:50.885Z,100149.16
2023-04-14T18:56:18.580Z,100149.81
2023-04-14T18:58:47.578Z,100152.75
2023-04-14T19:01:15.341Z,100155.28
2023-04-14T19:03:43.203Z,100158.59
2023-04-14T19:06:10.957Z,100157.41
2023-04-14T19:08:38.711Z,100156.47
2023-04-14T19:11:06.563Z,100160.97
2023-04-14T19:13:34.743Z,100155.06
2023-04-14T19:16:09.115Z,100159.94
2023-04-14T19:18:36.874Z,100173.28
2023-04-14T19:21:04.782Z,100165.63
2023-04-14T19:23:32.461Z,100174.34
2023-04-14T19:26:00.328Z,100166.31
2023-04-14T19:28:28.258Z,100170.25
2023-04-14T19:30:56.296Z,100178.19
2023-04-14T19:33:26.923Z,100172.34
2023-04-14T19:35:54.786Z,100171.09
2023-04-14T19:38:22.562Z,100181.75
2023-04-14T19:40:50.759Z,100178.59
2023-04-14T19:43:19.111Z,100178.38
2023-04-14T19:45:51.384Z,100178.28
2023-04-14T19:48:23.571Z,100180.31
2023-04-14T19:50:54.808Z,100187.03
2023-04-14T19:53:23.324Z,100187.03
2023-04-14T19:55:51.452Z,100183.66
2023-04-14T19:58:21.508Z,100178.06
2023-04-14T20:00:51.046Z,100185.34
2023-04-14T20:03:19.261Z,100191.38
2023-04-14T20:05:47.111Z,100194.00
2023-04-14T20:08:16.348Z,100191.38
2023-04-14T20:10:44.015Z,100189.56
2023-04-14T20:13:12.105Z,100192.28
2023-04-14T20:15:40.496Z,100193.22
2023-04-14T20:18:08.837Z,100189.53
2023-04-14T20:20:40.204Z,100182.53
2023-04-14T20:23:07.897Z,100193.13
2023-04-14T20:25:37.197Z,100193.72
2023-04-14T20:28:05.028Z,100197.53
2023-04-14T20:30:33.064Z,100198.84
2023-04-14T20:33:02.683Z,100207.25
2023-04-14T20:35:30.470Z,100200.50
2023-04-14T20:37:58.409Z,100200.69
2023-04-14T20:40:26.214Z,100207.06
2023-04-14T20:42:55.503Z,100210.41
2023-04-14T20:45:23.245Z,100210.75
2023-04-14T20:47:50.958Z,100204.81
2023-04-14T20:50:18.875Z,100205.84
2023-04-14T20:52:46.669Z,100211.28
2023-04-14T20:55:14.755Z,100201.41
2023-04-14T20:57:43.137Z,100217.06
2023-04-14T21:00:15.739Z,100214.03
2023-04-14T21:02:44.373Z,100221.00
2023-04-14T21:05:12.749Z,100221.16
2023-04-14T21:07:41.971Z,100207.31
2023-04-14T21:10:11.391Z,100214.19
2023-04-14T21:15:15.889Z,100214.84
2023-04-14T21:15:52.315Z,100214.09
2023-04-14T21:18:16.590Z,100209.75
2023-04-14T21:20:44.503Z,100214.28
2023-04-14T21:23:12.331Z,100214.59
2023-04-14T21:25:40.134Z,100220.41
2023-04-14T21:28:08.107Z,100210.16
2023-04-14T21:30:37.685Z,100215.38
2023-04-14T21:33:07.742Z,100220.91
2023-04-14T21:35:35.630Z,100213.31
2023-04-14T21:38:03.577Z,100211.06
2023-04-14T21:40:31.327Z,100221.78
2023-04-14T21:42:59.022Z,100228.00
2023-04-14T21:45:28.310Z,100226.41
2023-04-14T21:47:57.871Z,100231.00
2023-04-14T21:50:25.618Z,100225.66
2023-04-14T21:52:53.350Z,100232.91
2023-04-14T21:55:21.056Z,100231.56
2023-04-14T21:57:49.969Z,100216.50
2023-04-14T22:00:18.488Z,100226.59
2023-04-14T22:02:46.530Z,100229.13
2023-04-14T22:05:16.213Z,100231.38
2023-04-14T22:07:45.465Z,100232.13
2023-04-14T22:10:13.177Z,100235.97
2023-04-14T22:12:42.183Z,100221.97
2023-04-14T22:15:11.050Z,100239.09
2023-04-14T22:17:39.708Z,100231.47
2023-04-14T22:20:08.326Z,100243.44
2023-04-14T22:22:37.567Z,100237.22
2023-04-14T22:25:05.692Z,100244.38
2023-04-14T22:27:34.391Z,100240.22
2023-04-14T22:30:02.536Z,100243.91
2023-04-14T22:32:30.403Z,100242.28
2023-04-14T22:34:58.414Z,100252.81
2023-04-14T22:37:26.689Z,100252.63
2023-04-14T22:39:55.829Z,100254.16
2023-04-14T22:42:23.511Z,100253.00
2023-04-14T22:44:52.929Z,100258.75
2023-04-14T22:47:20.698Z,100255.72
2023-04-14T22:49:48.413Z,100260.63
2023-04-14T22:52:16.111Z,100261.75
2023-04-14T22:54:43.788Z,100260.69
2023-04-14T22:57:12.817Z,100265.47
2023-04-14T22:59:40.518Z,100268.06
2023-04-14T23:02:08.345Z,100272.09
2023-04-14T23:04:36.728Z,100266.84
2023-04-14T23:07:04.693Z,100272.09
2023-04-14T23:09:32.458Z,100273.31
2023-04-14T23:12:01.275Z,100267.50
2023-04-14T23:14:32.326Z,100276.53
2023-04-14T23:17:00.750Z,100272.75
2023-04-14T23:19:28.538Z,100277.31
2023-04-14T23:21:56.877Z,100270.72
2023-04-14T23:24:24.505Z,100274.34
2023-04-14T23:26:52.330Z,100282.16
2023-04-14T23:29:20.054Z,100281.50
2023-04-14T23:31:49.293Z,100290.03
2023-04-14T23:34:16.909Z,100280.06
2023-04-14T23:36:47.033Z,100277.00
2023-04-14T23:39:14.773Z,100281.31
2023-04-14T23:41:42.602Z,100283.19
2023-04-14T23:44:10.307Z,100282.69
2023-04-14T23:46:37.989Z,100279.38
2023-04-14T23:49:22.053Z,100282.84
2023-04-14T23:51:52.756Z,100274.47
2023-04-14T23:54:20.490Z,100280.16
2023-04-14T23:56:48.492Z,100282.41
2023-04-14T23:59:16.519Z,100282.34
